Time;durP1;ratioP1;P1;durP2;ratioP2;P2;SDS_P1;SDS_P2;PMS_P1;PMS_P2;Temp;Humidity;BMP_temperature;BMP_pressure;BME280_temperature;BME280_humidity;BME280_pressure;Samples;Min_cycle;Max_cycle;Signal;HPM_P1;HPM_P2
2022/07/04 00:33:03;;;;;;;12.55;6.85;;;13.10;99.90;;;;;;5225989;22;20053;-86
2022/07/04 00:35:47;;;;;;;13.07;7.20;;;13.00;99.90;;;;;;5053537;28;20142;-86
2022/07/04 00:38:53;;;;;;;14.10;7.00;;;13.20;99.90;;;;;;5071879;28;20115;-85
2022/07/04 00:59:09;;;;;;;12.90;6.15;;;12.70;99.90;;;;;;5243625;22;20051;-86
2022/07/04 01:05:35;;;;;;;13.10;6.55;;;12.50;99.90;;;;;;5052937;28;20044;-86
2022/07/04 01:11:41;;;;;;;14.10;7.80;;;12.60;99.90;;;;;;5075455;28;20048;-86
2022/07/04 01:39:07;;;;;;;15.95;9.75;;;12.50;99.90;;;;;;5113490;28;20394;-86
2022/07/04 01:42:04;;;;;;;16.88;9.98;;;12.60;99.90;;;;;;5114430;28;20052;-86
2022/07/04 02:09:56;;;;;;;;;;;;;;;;;;;;;
2022/07/04 02:13:40;;;;;;;15.60;9.57;;;13.40;99.90;;;;;;5058833;28;20043;-87
2022/07/04 02:36:52;;;;;;;19.15;9.27;;;11.90;99.90;;;;;;5094020;28;20109;-86
2022/07/04 03:25:09;;;;;;;;;;;;;;;;;;;;;
2022/07/04 03:35:11;;;;;;;322.70;51.92;;;11.90;99.90;;;;;;5052135;28;20484;-86
2022/07/04 05:33:20;;;;;;;18.83;10.13;;;13.40;99.90;;;;;;6185644;23;20079;-87
2022/07/04 05:54:24;;;;;;;16.30;9.25;;;14.40;99.90;;;;;;6185771;23;20140;-86
2022/07/04 06:05:06;;;;;;;15.52;8.02;;;14.90;99.90;;;;;;6184996;23;20075;-85
2022/07/04 06:08:13;;;;;;;14.95;8.05;;;15.00;99.90;;;;;;6185370;23;20071;-85
2022/07/04 06:29:08;;;;;;;17.80;7.43;;;15.50;99.90;;;;;;6185162;23;20346;-90
2022/07/04 06:35:45;;;;;;;12.35;7.45;;;15.80;99.90;;;;;;6158367;23;20017;-91
2022/07/04 06:38:40;;;;;;;15.20;7.60;;;15.90;99.90;;;;;;6031953;23;20147;-89
2022/07/04 06:41:27;;;;;;;15.70;7.72;;;16.00;99.90;;;;;;5928571;24;20017;-90
2022/07/04 06:44:42;;;;;;;15.48;6.72;;;16.00;99.90;;;;;;5913624;24;20023;-91
2022/07/04 06:47:08;;;;;;;14.32;6.45;;;16.10;99.90;;;;;;5953125;24;20570;-90
2022/07/04 06:50:07;;;;;;;13.60;6.32;;;16.20;99.90;;;;;;5969457;23;20019;-88
2022/07/04 06:53:16;;;;;;;13.98;6.03;;;16.30;99.90;;;;;;6036569;23;20020;-87
2022/07/04 07:02:26;;;;;;;12.23;5.20;;;16.80;99.90;;;;;;6184132;23;20452;-87
2022/07/04 07:11:43;;;;;;;11.40;4.70;;;17.40;99.90;;;;;;6158161;23;20120;-88
2022/07/04 07:21:54;;;;;;;9.52;4.78;;;17.30;99.90;;;;;;6154437;23;20060;-87
2022/07/04 07:24:42;;;;;;;11.70;4.57;;;17.70;99.90;;;;;;6153266;23;20081;-88
2022/07/04 07:29:58;;;;;;;9.95;5.03;;;18.10;99.90;;;;;;6210704;23;20021;-96
2022/07/04 07:39:33;;;;;;;10.52;5.38;;;18.40;99.90;;;;;;6172854;23;20084;-91
2022/07/04 07:50:37;;;;;;;16.70;5.35;;;19.10;99.90;;;;;;6153707;23;20114;-87
2022/07/04 08:10:01;;;;;;;11.95;4.60;;;19.20;99.90;;;;;;6177680;23;20021;-90
2022/07/04 08:23:45;;;;;;;12.68;4.45;;;19.50;99.90;;;;;;6178131;23;20052;-88
2022/07/04 08:48:31;;;;;;;11.25;3.60;;;19.20;99.90;;;;;;6067434;23;20062;-90
2022/07/04 09:05:32;;;;;;;12.65;4.00;;;19.40;99.90;;;;;;5981539;24;20019;-88
2022/07/04 09:14:02;;;;;;;12.20;4.75;;;20.00;99.90;;;;;;6165689;23;20026;-88
2022/07/04 09:17:27;;;;;;;11.75;4.63;;;19.90;99.90;;;;;;6046468;23;20027;-90
2022/07/04 09:20:34;;;;;;;11.85;4.03;;;20.40;99.90;;;;;;5981060;24;20028;-88
2022/07/04 09:27:05;;;;;;;11.98;3.78;;;20.20;99.90;;;;;;6108252;23;20073;-91
2022/07/04 09:43:00;;;;;;;15.52;4.18;;;20.50;99.90;;;;;;6011841;23;20027;-88
2022/07/04 09:49:34;;;;;;;12.18;3.55;;;20.00;99.90;;;;;;6011345;23;20027;-87
2022/07/04 09:55:37;;;;;;;10.43;3.45;;;20.00;99.90;;;;;;5891513;24;20021;-88
2022/07/04 10:01:39;;;;;;;9.68;2.78;;;20.20;99.90;;;;;;5924270;24;20110;-88
2022/07/04 10:06:50;;;;;;;11.52;2.95;;;20.60;99.90;;;;;;6154892;23;20017;-86
2022/07/04 10:10:00;;;;;;;10.70;3.13;;;20.70;99.90;;;;;;6153953;23;20017;-88
2022/07/04 10:13:03;;;;;;;9.98;2.50;;;20.60;99.90;;;;;;6153693;23;20017;-87
2022/07/04 10:15:57;;;;;;;;;;;;;;;;;;;;;
2022/07/04 10:18:59;;;;;;;8.18;2.55;;;20.50;99.90;;;;;;6039404;23;20520;-88
2022/07/04 10:21:59;;;;;;;9.77;2.55;;;20.90;99.90;;;;;;6153225;23;20021;-87
2022/07/04 10:36:37;;;;;;;10.68;2.10;;;21.80;99.90;;;;;;6155639;23;20025;-87
2022/07/04 10:39:30;;;;;;;9.25;2.17;;;22.10;99.90;;;;;;6154614;23;20366;-88
2022/07/04 10:45:41;;;;;;;8.18;2.10;;;22.40;99.90;;;;;;6153343;23;20018;-87
2022/07/04 10:49:09;;;;;;;7.57;2.03;;;22.50;99.90;;;;;;6132415;23;20441;-88
2022/07/04 10:52:01;;;;;;;7.10;1.90;;;22.30;99.90;;;;;;6154395;23;20017;-87
2022/07/04 10:55:20;;;;;;;6.75;1.88;;;22.20;99.90;;;;;;6154855;23;20017;-88
2022/07/04 10:57:46;;;;;;;5.68;1.77;;;22.60;99.90;;;;;;6093276;23;20456;-87
2022/07/04 11:01:02;;;;;;;6.80;1.90;;;23.00;99.90;;;;;;6093064;23;20025;-89
2022/07/04 11:03:28;;;;;;;7.72;2.13;;;23.00;99.90;;;;;;6070337;23;20400;-82
2022/07/04 11:25:56;;;;;;;6.93;2.20;;;22.40;99.90;;;;;;6156578;23;20346;-89
2022/07/04 11:47:36;;;;;;;6.65;2.20;;;22.40;98.30;;;;;;5950799;24;20028;-90
2022/07/04 11:50:25;;;;;;;6.00;2.08;;;22.30;97.40;;;;;;5927679;24;20022;-91
2022/07/04 11:53:09;;;;;;;7.13;2.00;;;22.60;97.70;;;;;;5926045;24;20482;-90
2022/07/04 11:56:30;;;;;;;7.60;2.13;;;22.60;99.30;;;;;;5927454;24;20108;-90
2022/07/04 11:59:18;;;;;;;6.03;2.00;;;23.00;97.40;;;;;;6064162;23;20375;-90
2022/07/04 12:34:59;;;;;;;6.97;1.95;;;23.00;97.00;;;;;;6096968;23;20252;-88
2022/07/04 12:37:25;;;;;;;6.72;2.13;;;22.70;99.20;;;;;;6098046;23;20018;-87
2022/07/04 12:40:21;;;;;;;6.93;2.00;;;22.60;98.30;;;;;;6070895;23;20074;-87
2022/07/04 12:42:50;;;;;;;5.30;1.88;;;22.50;99.20;;;;;;6071675;23;20025;-89
2022/07/04 12:45:58;;;;;;;6.38;2.00;;;23.50;98.40;;;;;;6127304;23;20021;-86
2022/07/04 13:00:15;;;;;;;5.35;1.92;;;23.20;98.60;;;;;;6155645;23;20017;-95
2022/07/04 13:02:47;;;;;;;6.30;2.10;;;23.70;99.10;;;;;;6155624;23;20354;-90
2022/07/04 13:09:09;;;;;;;6.20;1.90;;;23.10;96.90;;;;;;6129145;23;20029;-90
2022/07/04 13:15:19;;;;;;;6.30;1.90;;;23.20;97.20;;;;;;6007529;23;20031;-89
2022/07/04 13:21:35;;;;;;;5.43;1.83;;;23.00;96.10;;;;;;5997430;23;20015;-90
2022/07/04 13:35:04;;;;;;;7.45;1.98;;;23.60;97.80;;;;;;6194796;23;20059;-89
2022/07/04 13:37:39;;;;;;;7.18;2.10;;;23.60;97.70;;;;;;6185966;23;20033;-89
2022/07/04 13:40:16;;;;;;;8.30;1.90;;;23.60;96.20;;;;;;6185340;23;20071;-89
2022/07/04 13:45:57;;;;;;;6.68;2.00;;;24.00;95.70;;;;;;6158823;23;20024;-90
2022/07/04 13:48:36;;;;;;;5.30;1.70;;;24.40;95.10;;;;;;6157661;23;20025;-89
2022/07/04 13:51:38;;;;;;;4.93;1.70;;;24.20;93.50;;;;;;6159081;23;20461;-93
2022/07/04 13:54:35;;;;;;;5.90;2.05;;;24.20;93.50;;;;;;6160723;23;20060;-88
2022/07/04 13:57:33;;;;;;;6.07;1.75;;;24.30;94.00;;;;;;6244860;23;20048;-88
2022/07/04 14:00:09;;;;;;;6.18;1.95;;;24.20;93.90;;;;;;6133759;22;20076;-88
2022/07/04 14:17:24;;;;;;;4.80;1.60;;;23.80;93.00;;;;;;6152002;23;20022;-91
2022/07/04 14:20:10;;;;;;;6.03;1.70;;;23.60;92.00;;;;;;6153084;23;20464;-88
2022/07/04 14:22:37;;;;;;;4.85;1.70;;;23.30;92.60;;;;;;6153170;23;20101;-88
2022/07/04 14:25:47;;;;;;;6.07;1.90;;;23.40;93.10;;;;;;6152173;23;20013;-88
2022/07/04 14:28:34;;;;;;;4.82;1.60;;;23.60;92.30;;;;;;6131097;23;20032;-88
2022/07/04 14:31:15;;;;;;;4.63;1.52;;;23.80;92.10;;;;;;6055643;23;20400;-87
2022/07/04 14:33:59;;;;;;;3.72;1.52;;;23.90;93.70;;;;;;6034018;23;20023;-88
2022/07/04 14:36:46;;;;;;;4.60;1.60;;;24.40;92.30;;;;;;6016465;23;20023;-88
2022/07/04 14:39:40;;;;;;;4.43;1.50;;;24.40;91.00;;;;;;6037697;23;20048;-89
2022/07/04 14:42:09;;;;;;;3.65;1.40;;;24.00;90.60;;;;;;6037394;23;20019;-89
2022/07/04 14:44:43;;;;;;;3.15;1.50;;;24.20;91.80;;;;;;6035660;23;20038;-88
2022/07/04 14:47:18;;;;;;;5.07;1.50;;;23.80;90.20;;;;;;6012629;23;20019;-88
2022/07/04 14:49:45;;;;;;;5.25;1.70;;;23.80;90.60;;;;;;6012327;23;20027;-87
2022/07/04 14:55:14;;;;;;;4.88;1.65;;;23.80;90.20;;;;;;6200497;23;20032;-87
2022/07/04 14:57:39;;;;;;;4.90;1.50;;;23.80;89.90;;;;;;6187911;23;20104;-88
2022/07/04 15:00:06;;;;;;;4.78;1.60;;;23.90;91.10;;;;;;6187273;23;20519;-88
2022/07/04 15:02:32;;;;;;;4.13;1.60;;;23.70;90.50;;;;;;6188305;23;20017;-91
2022/07/04 15:05:22;;;;;;;4.05;1.48;;;23.70;90.40;;;;;;6215043;23;20035;-93
2022/07/04 15:08:17;;;;;;;4.97;1.67;;;23.60;88.60;;;;;;6209565;23;20017;-93
2022/07/04 15:11:03;;;;;;;5.22;1.48;;;23.70;89.00;;;;;;6064135;23;20015;-92
2022/07/04 15:13:40;;;;;;;4.85;1.50;;;23.50;88.30;;;;;;6064039;23;20030;-89
2022/07/04 15:16:43;;;;;;;4.88;1.40;;;23.60;88.60;;;;;;6120182;23;20025;-90
2022/07/04 15:24:10;;;;;;;5.10;1.50;;;23.40;88.50;;;;;;6157295;23;20018;-90
2022/07/04 15:29:56;;;;;;;2.92;1.30;;;23.20;87.30;;;;;;6153058;23;20017;-87
2022/07/04 15:42:41;;;;;;;4.03;1.40;;;23.30;86.90;;;;;;6213736;23;20016;-90
2022/07/04 15:45:16;;;;;;;4.13;1.40;;;23.20;85.30;;;;;;6188696;23;20323;-90
2022/07/04 15:48:42;;;;;;;3.88;1.50;;;23.30;87.40;;;;;;6161243;23;20788;-89
2022/07/04 15:52:17;;;;;;;3.63;1.30;;;23.40;87.80;;;;;;6128648;23;20096;-91
2022/07/04 15:54:46;;;;;;;3.80;1.40;;;23.50;87.50;;;;;;6126815;23;20033;-92
2022/07/04 15:57:49;;;;;;;4.78;1.52;;;23.60;88.80;;;;;;6156946;23;20013;-91
2022/07/04 16:00:34;;;;;;;4.03;1.40;;;23.20;86.20;;;;;;6128880;23;20028;-91
2022/07/04 16:30:08;;;;;;;4.90;1.70;;;23.90;87.90;;;;;;6005933;23;20146;-87
2022/07/04 16:32:38;;;;;;;2.72;1.35;;;23.90;86.70;;;;;;5996495;23;20030;-87
2022/07/04 16:35:24;;;;;;;3.05;1.48;;;23.80;87.60;;;;;;5982642;23;20094;-89
2022/07/04 16:41:30;;;;;;;2.30;1.35;;;24.00;87.70;;;;;;5922351;24;20033;-89
2022/07/04 16:44:11;;;;;;;2.53;1.35;;;24.00;88.50;;;;;;5922300;24;20096;-89
2022/07/04 18:04:16;;;;;;;4.63;1.55;;;24.60;87.00;;;;;;6177579;23;20024;-87
2022/07/04 18:11:30;;;;;;;3.40;1.40;;;24.90;86.30;;;;;;6158869;23;20029;-88
2022/07/04 18:14:53;;;;;;;3.85;1.40;;;24.80;86.70;;;;;;6152664;23;20339;-87
2022/07/04 18:22:07;;;;;;;2.97;1.40;;;24.80;87.20;;;;;;6155237;23;20072;-86
2022/07/04 18:24:35;;;;;;;6.55;1.90;;;24.30;87.30;;;;;;6152049;23;20017;-86
2022/07/04 18:27:01;;;;;;;3.78;1.45;;;24.20;88.20;;;;;;6152908;23;20017;-85
2022/07/04 18:29:32;;;;;;;3.17;1.40;;;24.20;88.60;;;;;;6152803;23;20461;-85
2022/07/04 18:31:58;;;;;;;6.35;1.63;;;24.10;88.40;;;;;;6153534;23;20017;-85
2022/07/04 18:34:25;;;;;;;5.10;1.48;;;24.00;89.10;;;;;;6152954;23;20072;-85
2022/07/04 18:37:21;;;;;;;5.00;1.60;;;23.90;89.40;;;;;;6154156;23;20080;-86
2022/07/04 18:39:56;;;;;;;4.85;1.42;;;24.00;89.70;;;;;;6153423;23;20014;-86
2022/07/04 18:45:42;;;;;;;3.25;1.30;;;23.60;90.00;;;;;;6154150;23;20017;-86
2022/07/04 18:48:10;;;;;;;5.40;1.50;;;23.50;90.10;;;;;;6152956;23;20025;-85
2022/07/04 18:50:39;;;;;;;3.95;1.40;;;23.30;90.40;;;;;;6152742;23;20775;-86
2022/07/04 18:53:05;;;;;;;5.28;1.67;;;23.40;90.60;;;;;;6153552;23;20065;-85
2022/07/04 18:55:52;;;;;;;6.53;1.60;;;23.30;90.70;;;;;;6153636;23;20010;-86
2022/07/04 19:01:07;;;;;;;4.72;1.50;;;23.10;91.00;;;;;;6241755;23;20077;-85
2022/07/04 19:03:42;;;;;;;3.63;1.40;;;23.00;91.10;;;;;;6244785;23;20020;-85
2022/07/04 19:06:17;;;;;;;4.63;1.52;;;22.60;91.50;;;;;;6217863;23;20024;-86
2022/07/04 19:08:55;;;;;;;5.53;1.63;;;22.10;91.80;;;;;;6245028;23;20040;-85
2022/07/04 19:11:38;;;;;;;3.53;1.50;;;21.40;92.70;;;;;;6218093;23;20086;-84
2022/07/04 19:14:04;;;;;;;;;;;20.80;93.40;;;;;;6218084;23;20020;-84
2022/07/04 19:16:34;;;;;;;4.75;1.50;;;20.30;95.20;;;;;;6244287;23;19969;-85
2022/07/04 19:19:00;;;;;;;4.22;1.60;;;20.00;94.50;;;;;;6243344;23;20479;-85
2022/07/04 19:21:25;;;;;;;5.13;1.65;;;19.60;95.00;;;;;;6218004;23;20020;-84
2022/07/04 19:23:52;;;;;;;6.38;1.73;;;19.50;95.70;;;;;;6243764;23;20372;-85
2022/07/04 19:26:18;;;;;;;5.30;1.70;;;19.20;96.40;;;;;;6217160;23;20017;-85
2022/07/04 19:28:44;;;;;;;3.45;1.45;;;19.10;97.10;;;;;;6243864;23;20023;-84
2022/07/04 19:31:27;;;;;;;5.00;1.60;;;19.00;97.20;;;;;;6217352;23;20471;-84
2022/07/04 19:33:53;;;;;;;5.38;1.70;;;18.90;97.90;;;;;;6216137;23;20071;-84
2022/07/04 19:36:27;;;;;;;6.22;1.75;;;18.90;98.30;;;;;;6217720;23;20020;-84
2022/07/04 19:39:05;;;;;;;5.75;1.55;;;18.70;98.60;;;;;;6165641;23;20156;-87
2022/07/04 19:45:07;;;;;;;3.55;1.52;;;17.90;99.90;;;;;;6062703;23;20019;-85
2022/07/04 19:47:36;;;;;;;6.30;1.80;;;18.30;99.80;;;;;;6111714;23;20034;-85
2022/07/04 19:50:17;;;;;;;4.30;1.60;;;18.90;99.90;;;;;;6123251;23;20018;-85
2022/07/04 19:52:43;;;;;;;8.27;1.70;;;18.20;99.90;;;;;;6153080;23;20040;-84
2022/07/04 19:55:37;;;;;;;3.58;1.60;;;18.10;99.90;;;;;;6183660;23;20441;-85
2022/07/04 19:58:15;;;;;;;5.57;1.90;;;17.90;99.90;;;;;;6155496;23;20064;-84
2022/07/04 20:00:43;;;;;;;5.97;1.85;;;18.90;99.90;;;;;;6156498;23;20468;-85
2022/07/04 20:03:12;;;;;;;5.32;1.70;;;17.80;99.90;;;;;;6156025;23;20286;-85
2022/07/04 20:05:41;;;;;;;4.40;1.60;;;17.70;99.90;;;;;;6184000;23;20730;-84
2022/07/04 20:08:06;;;;;;;4.95;1.70;;;18.00;99.90;;;;;;6183614;23;20012;-85
2022/07/04 20:10:32;;;;;;;4.70;1.70;;;17.80;99.90;;;;;;6184797;23;20367;-85
2022/07/04 20:12:58;;;;;;;5.70;1.88;;;18.20;99.90;;;;;;6157591;23;20013;-87
2022/07/04 20:15:24;;;;;;;5.93;1.92;;;17.40;99.90;;;;;;6156341;23;20038;-85
2022/07/04 20:17:51;;;;;;;5.32;2.00;;;17.30;99.90;;;;;;6184090;23;20342;-85
2022/07/04 20:20:17;;;;;;;4.75;1.70;;;17.30;99.90;;;;;;6184623;23;20024;-85
2022/07/04 20:22:43;;;;;;;4.78;1.65;;;17.20;99.90;;;;;;6156493;23;20334;-85
2022/07/04 20:25:10;;;;;;;5.35;1.60;;;17.20;99.90;;;;;;6158097;23;20063;-85
2022/07/04 20:27:36;;;;;;;5.35;1.70;;;17.10;99.90;;;;;;6184552;23;20024;-83
2022/07/04 20:30:09;;;;;;;7.20;1.88;;;17.30;99.90;;;;;;6182772;23;20330;-83
2022/07/04 20:32:35;;;;;;;5.40;1.70;;;16.90;99.90;;;;;;6157295;23;20434;-83
2022/07/04 20:35:09;;;;;;;6.15;1.90;;;17.20;99.90;;;;;;6158071;23;20031;-83
2022/07/04 20:37:38;;;;;;;6.13;2.08;;;16.80;99.90;;;;;;6185486;23;20063;-83
2022/07/04 20:40:08;;;;;;;5.10;1.75;;;16.80;99.90;;;;;;6159793;23;20334;-83
2022/07/04 20:42:34;;;;;;;6.50;1.80;;;16.70;99.90;;;;;;6186012;23;20088;-84
2022/07/04 20:45:00;;;;;;;5.20;1.80;;;16.70;99.90;;;;;;6157658;23;20110;-82
2022/07/04 20:47:33;;;;;;;9.68;2.17;;;16.60;99.90;;;;;;6137002;23;20025;-83
2022/07/04 20:53:53;;;;;;;7.03;2.00;;;16.40;99.90;;;;;;6126211;23;20081;-83
2022/07/04 20:56:23;;;;;;;8.95;1.90;;;17.40;99.90;;;;;;6135238;23;20316;-83
2022/07/04 20:58:48;;;;;;;8.85;1.95;;;17.40;99.90;;;;;;6174808;23;20346;-83
2022/07/04 21:01:17;;;;;;;9.32;2.03;;;16.60;99.90;;;;;;6154679;23;20558;-83
2022/07/04 21:03:46;;;;;;;8.95;1.98;;;16.80;99.90;;;;;;6156353;23;20025;-82
2022/07/04 21:06:11;;;;;;;6.68;2.03;;;16.30;99.90;;;;;;6157181;23;20130;-82
2022/07/04 21:08:37;;;;;;;5.50;1.70;;;16.20;99.90;;;;;;6156208;23;20010;-82
2022/07/04 21:11:03;;;;;;;5.72;2.13;;;16.10;99.90;;;;;;6154866;23;20013;-82
2022/07/04 21:13:28;;;;;;;7.50;2.10;;;16.10;99.90;;;;;;6154929;23;20039;-83
2022/07/04 21:15:54;;;;;;;6.43;2.20;;;16.10;99.90;;;;;;6153790;23;20485;-83
2022/07/04 21:18:20;;;;;;;8.40;2.20;;;16.20;99.90;;;;;;6155320;23;20797;-83
2022/07/04 21:20:45;;;;;;;5.40;1.90;;;15.90;99.90;;;;;;6154151;23;20009;-83
2022/07/04 21:23:11;;;;;;;5.35;2.00;;;16.60;99.90;;;;;;6154176;23;20021;-83
2022/07/04 21:25:36;;;;;;;8.30;2.10;;;16.20;99.90;;;;;;6154940;23;20006;-83
2022/07/04 21:28:02;;;;;;;5.47;1.90;;;15.80;99.90;;;;;;6153220;23;20018;-83
2022/07/04 21:30:28;;;;;;;6.78;2.10;;;15.80;99.90;;;;;;6153999;23;20021;-82
2022/07/04 21:32:53;;;;;;;6.07;2.10;;;15.70;99.90;;;;;;6152685;23;20063;-82
2022/07/04 21:35:19;;;;;;;8.07;2.15;;;15.70;99.90;;;;;;6155951;23;20332;-83
2022/07/04 21:37:45;;;;;;;6.32;1.98;;;16.10;99.90;;;;;;6153701;23;20013;-82
2022/07/04 21:40:11;;;;;;;5.53;2.03;;;15.60;99.90;;;;;;6154951;23;20330;-82
2022/07/04 21:42:36;;;;;;;6.68;2.00;;;15.60;99.90;;;;;;6155745;23;20013;-83
2022/07/04 21:45:06;;;;;;;6.97;2.20;;;15.50;99.90;;;;;;6155120;23;20024;-83
2022/07/04 21:47:31;;;;;;;5.40;2.00;;;15.50;99.90;;;;;;6153279;23;20096;-83
2022/07/04 21:49:58;;;;;;;6.25;2.05;;;15.50;99.90;;;;;;6153879;23;20125;-82
2022/07/04 21:52:24;;;;;;;7.05;2.33;;;15.40;99.90;;;;;;6128382;23;20017;-85
2022/07/04 21:54:49;;;;;;;8.25;2.20;;;15.40;99.90;;;;;;6155210;23;20036;-83
2022/07/04 21:57:15;;;;;;;7.20;2.38;;;15.30;99.90;;;;;;6152364;23;20018;-84
2022/07/04 21:59:41;;;;;;;8.30;2.35;;;15.20;99.90;;;;;;6155586;23;20398;-84
2022/07/04 22:02:06;;;;;;;6.75;2.00;;;15.20;99.90;;;;;;6155153;23;20092;-84
2022/07/04 22:04:32;;;;;;;7.22;2.20;;;15.50;99.90;;;;;;6154417;23;20013;-84
2022/07/04 22:06:57;;;;;;;6.43;2.13;;;15.20;99.90;;;;;;6155927;23;20084;-84
2022/07/04 22:09:23;;;;;;;7.35;2.30;;;15.20;99.90;;;;;;6154828;23;20512;-84
2022/07/04 22:11:49;;;;;;;6.75;2.28;;;15.50;99.90;;;;;;6153332;23;20100;-84
2022/07/04 22:14:16;;;;;;;7.97;2.28;;;15.10;99.90;;;;;;6154022;23;20033;-84
2022/07/04 22:16:42;;;;;;;7.43;2.70;;;15.80;99.90;;;;;;6153618;23;20080;-84
2022/07/04 22:19:08;;;;;;;6.80;2.20;;;15.10;99.90;;;;;;6129667;23;20022;-85
2022/07/04 22:21:33;;;;;;;6.65;2.30;;;15.10;99.90;;;;;;6153654;23;20450;-84
2022/07/04 22:23:59;;;;;;;7.05;2.40;;;15.10;99.90;;;;;;6154120;23;20025;-84
2022/07/04 22:26:24;;;;;;;6.60;2.25;;;15.10;99.90;;;;;;6154095;23;20026;-84
2022/07/04 22:28:50;;;;;;;6.75;2.53;;;15.00;99.90;;;;;;6152716;23;20022;-84
2022/07/04 22:31:15;;;;;;;6.78;2.33;;;15.00;99.90;;;;;;6155734;23;20017;-84
2022/07/04 22:33:42;;;;;;;7.50;2.30;;;14.90;99.90;;;;;;6155078;23;20100;-84
2022/07/04 22:36:08;;;;;;;7.82;2.60;;;14.90;99.90;;;;;;6155047;23;20449;-84
2022/07/04 22:38:33;;;;;;;7.25;2.60;;;14.90;99.90;;;;;;6154154;23;20052;-84
2022/07/04 22:41:00;;;;;;;9.60;2.63;;;15.70;99.90;;;;;;6153943;23;20449;-85
2022/07/04 22:43:25;;;;;;;9.00;3.17;;;14.80;99.90;;;;;;6153276;23;20068;-84
2022/07/04 22:45:51;;;;;;;8.10;2.70;;;15.20;99.90;;;;;;6155500;23;20013;-84
2022/07/04 22:48:17;;;;;;;8.48;2.67;;;15.30;99.90;;;;;;6155710;23;20022;-83
2022/07/04 22:56:11;;;;;;;;;;;14.70;99.90;;;;;;6154292;23;20076;-84
2022/07/04 22:58:37;;;;;;;8.82;2.85;;;14.90;99.90;;;;;;6152640;23;20344;-84
2022/07/04 23:01:03;;;;;;;7.85;2.80;;;15.00;99.90;;;;;;6155273;23;20026;-84
2022/07/04 23:03:29;;;;;;;8.55;3.20;;;14.60;99.90;;;;;;6153644;23;20480;-84
2022/07/04 23:05:54;;;;;;;9.32;3.70;;;14.70;99.90;;;;;;6155531;23;20076;-84
2022/07/04 23:08:20;;;;;;;12.27;3.90;;;14.50;99.90;;;;;;6153715;23;20517;-84
2022/07/04 23:10:45;;;;;;;19.00;4.75;;;14.40;99.90;;;;;;6154530;23;20018;-84
2022/07/04 23:13:26;;;;;;;11.23;4.13;;;14.40;99.90;;;;;;6138798;23;20025;-84
2022/07/04 23:15:58;;;;;;;12.07;4.68;;;14.90;99.90;;;;;;6155306;23;20088;-84
2022/07/04 23:18:33;;;;;;;12.38;5.20;;;14.40;99.90;;;;;;6154876;23;20017;-84
2022/07/04 23:20:58;;;;;;;14.13;4.60;;;14.90;99.90;;;;;;6154929;23;20439;-84
2022/07/04 23:23:33;;;;;;;11.43;4.38;;;14.30;99.90;;;;;;6155677;23;20028;-84
2022/07/04 23:25:59;;;;;;;9.68;3.55;;;15.10;99.90;;;;;;6152226;23;20435;-84
2022/07/04 23:28:24;;;;;;;9.48;3.60;;;14.30;99.90;;;;;;6153723;23;20022;-84
2022/07/04 23:30:53;;;;;;;9.38;3.38;;;14.30;99.90;;;;;;6155332;23;20009;-84
2022/07/04 23:33:18;;;;;;;11.07;3.28;;;14.20;99.90;;;;;;6154400;23;20021;-84
2022/07/04 23:35:44;;;;;;;9.63;3.40;;;14.20;99.90;;;;;;6153508;23;20116;-84
2022/07/04 23:38:09;;;;;;;8.70;3.22;;;14.20;99.90;;;;;;6155342;23;20063;-84
2022/07/04 23:40:35;;;;;;;9.35;3.22;;;14.20;99.90;;;;;;6152705;23;20020;-84
2022/07/04 23:43:00;;;;;;;8.68;3.00;;;14.20;99.90;;;;;;6155160;23;20467;-84
2022/07/04 23:45:26;;;;;;;9.52;3.20;;;14.10;99.90;;;;;;6153539;23;20022;-84
2022/07/04 23:47:52;;;;;;;9.45;3.38;;;14.10;99.90;;;;;;6154404;23;20385;-84
2022/07/04 23:50:17;;;;;;;9.90;3.45;;;14.00;99.90;;;;;;6155659;23;20014;-84
2022/07/04 23:52:43;;;;;;;9.13;3.40;;;14.00;99.90;;;;;;6155280;23;20029;-84
2022/07/04 23:55:09;;;;;;;10.35;3.25;;;13.90;99.90;;;;;;6154834;23;20457;-84
2022/07/04 23:57:34;;;;;;;8.05;3.17;;;13.90;99.90;;;;;;6154982;23;20022;-84
